sensor_id;sensor_type;location;lat;lon;timestamp;P1;durP1;ratioP1;P2;durP2;ratioP2
80565;SDS011;69915;54.862;10.730;2023-10-31T00:01:05;11.20;;;4.20;;
80565;SDS011;69915;54.862;10.730;2023-10-31T00:03:31;10.25;;;3.85;;
80565;SDS011;69915;54.862;10.730;2023-10-31T00:05:57;7.40;;;3.15;;
80565;SDS011;69915;54.862;10.730;2023-10-31T00:08:22;7.97;;;3.35;;
80565;SDS011;69915;54.862;10.730;2023-10-31T00:10:49;7.40;;;4.55;;
80565;SDS011;69915;54.862;10.730;2023-10-31T00:13:14;6.70;;;3.67;;
80565;SDS011;69915;54.862;10.730;2023-10-31T00:15:40;8.77;;;3.50;;
80565;SDS011;69915;54.862;10.730;2023-10-31T00:18:05;7.63;;;4.35;;
80565;SDS011;69915;54.862;10.730;2023-10-31T00:20:31;7.03;;;4.88;;
80565;SDS011;69915;54.862;10.730;2023-10-31T00:22:56;7.28;;;4.15;;
80565;SDS011;69915;54.862;10.730;2023-10-31T00:25:22;6.60;;;3.15;;
80565;SDS011;69915;54.862;10.730;2023-10-31T00:27:47;8.70;;;3.92;;
80565;SDS011;69915;54.862;10.730;2023-10-31T00:30:13;6.30;;;4.20;;
80565;SDS011;69915;54.862;10.730;2023-10-31T00:32:38;7.22;;;4.22;;
80565;SDS011;69915;54.862;10.730;2023-10-31T00:35:04;7.00;;;3.47;;
80565;SDS011;69915;54.862;10.730;2023-10-31T00:37:30;8.35;;;4.70;;
80565;SDS011;69915;54.862;10.730;2023-10-31T00:39:55;8.30;;;5.53;;
80565;SDS011;69915;54.862;10.730;2023-10-31T00:42:20;5.43;;;4.05;;
80565;SDS011;69915;54.862;10.730;2023-10-31T00:44:46;8.65;;;4.32;;
80565;SDS011;69915;54.862;10.730;2023-10-31T00:47:11;6.90;;;4.03;;
80565;SDS011;69915;54.862;10.730;2023-10-31T00:49:37;7.43;;;4.50;;
80565;SDS011;69915;54.862;10.730;2023-10-31T00:52:03;8.70;;;4.88;;
80565;SDS011;69915;54.862;10.730;2023-10-31T00:54:29;8.75;;;4.40;;
80565;SDS011;69915;54.862;10.730;2023-10-31T00:56:54;6.60;;;4.90;;
80565;SDS011;69915;54.862;10.730;2023-10-31T00:59:20;6.53;;;5.45;;
80565;SDS011;69915;54.862;10.730;2023-10-31T01:01:45;7.78;;;4.22;;
80565;SDS011;69915;54.862;10.730;2023-10-31T01:04:11;6.78;;;5.30;;
80565;SDS011;69915;54.862;10.730;2023-10-31T01:06:42;6.80;;;4.35;;
80565;SDS011;69915;54.862;10.730;2023-10-31T01:09:11;6.95;;;5.78;;
80565;SDS011;69915;54.862;10.730;2023-10-31T01:11:38;7.78;;;4.40;;
80565;SDS011;69915;54.862;10.730;2023-10-31T01:14:03;8.43;;;4.45;;
80565;SDS011;69915;54.862;10.730;2023-10-31T01:16:29;8.65;;;5.35;;
80565;SDS011;69915;54.862;10.730;2023-10-31T01:18:54;11.68;;;5.53;;
80565;SDS011;69915;54.862;10.730;2023-10-31T01:21:20;7.90;;;6.13;;
80565;SDS011;69915;54.862;10.730;2023-10-31T01:23:45;7.07;;;4.90;;
80565;SDS011;69915;54.862;10.730;2023-10-31T01:26:11;9.98;;;4.70;;
80565;SDS011;69915;54.862;10.730;2023-10-31T01:28:36;9.80;;;4.68;;
80565;SDS011;69915;54.862;10.730;2023-10-31T01:31:02;7.88;;;5.20;;
80565;SDS011;69915;54.862;10.730;2023-10-31T01:33:27;7.90;;;5.25;;
80565;SDS011;69915;54.862;10.730;2023-10-31T01:35:53;8.10;;;5.38;;
80565;SDS011;69915;54.862;10.730;2023-10-31T01:38:18;7.45;;;5.35;;
80565;SDS011;69915;54.862;10.730;2023-10-31T01:40:44;9.77;;;4.65;;
80565;SDS011;69915;54.862;10.730;2023-10-31T01:43:13;7.75;;;4.55;;
80565;SDS011;69915;54.862;10.730;2023-10-31T01:46:00;6.65;;;4.95;;
80565;SDS011;69915;54.862;10.730;2023-10-31T01:48:27;8.02;;;5.97;;
80565;SDS011;69915;54.862;10.730;2023-10-31T01:50:54;8.10;;;5.95;;
80565;SDS011;69915;54.862;10.730;2023-10-31T01:53:21;9.23;;;5.60;;
80565;SDS011;69915;54.862;10.730;2023-10-31T01:55:49;7.93;;;5.88;;
80565;SDS011;69915;54.862;10.730;2023-10-31T01:58:16;10.80;;;5.95;;
80565;SDS011;69915;54.862;10.730;2023-10-31T02:00:42;10.07;;;6.10;;
80565;SDS011;69915;54.862;10.730;2023-10-31T02:03:08;11.00;;;5.68;;
80565;SDS011;69915;54.862;10.730;2023-10-31T02:05:34;12.52;;;6.88;;
80565;SDS011;69915;54.862;10.730;2023-10-31T02:08:00;17.55;;;6.95;;
80565;SDS011;69915;54.862;10.730;2023-10-31T02:10:26;8.02;;;5.95;;
80565;SDS011;69915;54.862;10.730;2023-10-31T02:12:52;10.07;;;6.25;;
80565;SDS011;69915;54.862;10.730;2023-10-31T02:15:17;9.50;;;6.78;;
80565;SDS011;69915;54.862;10.730;2023-10-31T02:17:43;12.15;;;7.03;;
80565;SDS011;69915;54.862;10.730;2023-10-31T02:20:08;12.98;;;7.28;;
80565;SDS011;69915;54.862;10.730;2023-10-31T02:22:34;10.43;;;6.63;;
80565;SDS011;69915;54.862;10.730;2023-10-31T02:25:00;12.10;;;7.65;;
80565;SDS011;69915;54.862;10.730;2023-10-31T02:27:28;11.75;;;6.30;;
80565;SDS011;69915;54.862;10.730;2023-10-31T02:29:55;15.23;;;7.57;;
80565;SDS011;69915;54.862;10.730;2023-10-31T02:32:21;10.32;;;6.97;;
80565;SDS011;69915;54.862;10.730;2023-10-31T02:34:46;8.45;;;6.57;;
80565;SDS011;69915;54.862;10.730;2023-10-31T02:37:12;14.93;;;8.10;;
80565;SDS011;69915;54.862;10.730;2023-10-31T02:39:37;13.25;;;7.60;;
80565;SDS011;69915;54.862;10.730;2023-10-31T02:42:03;9.77;;;6.63;;
80565;SDS011;69915;54.862;10.730;2023-10-31T02:44:28;11.82;;;7.25;;
80565;SDS011;69915;54.862;10.730;2023-10-31T02:46:54;9.93;;;6.63;;
80565;SDS011;69915;54.862;10.730;2023-10-31T02:49:20;14.30;;;6.95;;
80565;SDS011;69915;54.862;10.730;2023-10-31T02:51:46;9.88;;;6.15;;
80565;SDS011;69915;54.862;10.730;2023-10-31T02:54:11;14.82;;;6.18;;
80565;SDS011;69915;54.862;10.730;2023-10-31T02:56:37;7.75;;;5.57;;
80565;SDS011;69915;54.862;10.730;2023-10-31T02:59:02;10.73;;;5.82;;
80565;SDS011;69915;54.862;10.730;2023-10-31T03:01:28;10.00;;;6.18;;
80565;SDS011;69915;54.862;10.730;2023-10-31T03:03:54;10.65;;;6.07;;
80565;SDS011;69915;54.862;10.730;2023-10-31T03:06:20;8.02;;;6.25;;
80565;SDS011;69915;54.862;10.730;2023-10-31T03:08:46;8.73;;;6.88;;
80565;SDS011;69915;54.862;10.730;2023-10-31T03:11:25;8.20;;;6.10;;
80565;SDS011;69915;54.862;10.730;2023-10-31T03:13:51;7.85;;;5.82;;
80565;SDS011;69915;54.862;10.730;2023-10-31T03:18:46;8.90;;;6.45;;
80565;SDS011;69915;54.862;10.730;2023-10-31T03:21:12;11.82;;;6.57;;
80565;SDS011;69915;54.862;10.730;2023-10-31T03:23:38;12.80;;;6.47;;
80565;SDS011;69915;54.862;10.730;2023-10-31T03:26:04;10.75;;;7.28;;
80565;SDS011;69915;54.862;10.730;2023-10-31T03:28:29;9.10;;;6.40;;
80565;SDS011;69915;54.862;10.730;2023-10-31T03:30:55;10.15;;;6.25;;
80565;SDS011;69915;54.862;10.730;2023-10-31T03:33:20;6.07;;;4.85;;
80565;SDS011;69915;54.862;10.730;2023-10-31T03:35:46;5.25;;;4.60;;
80565;SDS011;69915;54.862;10.730;2023-10-31T03:38:11;4.38;;;3.65;;
80565;SDS011;69915;54.862;10.730;2023-10-31T03:40:37;4.00;;;2.50;;
80565;SDS011;69915;54.862;10.730;2023-10-31T03:43:02;4.00;;;2.58;;
80565;SDS011;69915;54.862;10.730;2023-10-31T03:45:28;2.95;;;2.53;;
80565;SDS011;69915;54.862;10.730;2023-10-31T03:47:54;3.58;;;2.50;;
80565;SDS011;69915;54.862;10.730;2023-10-31T03:50:19;9.00;;;2.90;;
80565;SDS011;69915;54.862;10.730;2023-10-31T03:52:45;7.70;;;2.95;;
80565;SDS011;69915;54.862;10.730;2023-10-31T03:55:10;5.90;;;3.10;;
80565;SDS011;69915;54.862;10.730;2023-10-31T03:57:36;4.63;;;3.80;;
80565;SDS011;69915;54.862;10.730;2023-10-31T04:00:01;5.88;;;4.05;;
80565;SDS011;69915;54.862;10.730;2023-10-31T04:02:29;9.90;;;3.50;;
80565;SDS011;69915;54.862;10.730;2023-10-31T04:04:55;5.35;;;2.63;;
80565;SDS011;69915;54.862;10.730;2023-10-31T04:07:20;4.63;;;3.05;;
80565;SDS011;69915;54.862;10.730;2023-10-31T04:09:46;3.92;;;2.70;;
80565;SDS011;69915;54.862;10.730;2023-10-31T04:12:11;4.45;;;2.65;;
80565;SDS011;69915;54.862;10.730;2023-10-31T04:14:38;6.00;;;2.97;;
80565;SDS011;69915;54.862;10.730;2023-10-31T04:17:03;4.57;;;2.30;;
80565;SDS011;69915;54.862;10.730;2023-10-31T04:19:29;4.45;;;2.50;;
80565;SDS011;69915;54.862;10.730;2023-10-31T04:21:55;5.65;;;2.45;;
80565;SDS011;69915;54.862;10.730;2023-10-31T04:24:20;4.03;;;2.15;;
80565;SDS011;69915;54.862;10.730;2023-10-31T04:26:45;5.00;;;2.95;;
80565;SDS011;69915;54.862;10.730;2023-10-31T04:29:11;4.88;;;2.75;;
80565;SDS011;69915;54.862;10.730;2023-10-31T04:31:36;4.93;;;2.17;;
80565;SDS011;69915;54.862;10.730;2023-10-31T04:34:02;3.15;;;2.33;;
80565;SDS011;69915;54.862;10.730;2023-10-31T04:36:27;4.68;;;3.05;;
80565;SDS011;69915;54.862;10.730;2023-10-31T04:38:53;6.18;;;3.15;;
80565;SDS011;69915;54.862;10.730;2023-10-31T04:41:19;9.25;;;3.13;;
80565;SDS011;69915;54.862;10.730;2023-10-31T04:43:45;4.13;;;3.15;;
80565;SDS011;69915;54.862;10.730;2023-10-31T04:46:10;3.00;;;2.25;;
80565;SDS011;69915;54.862;10.730;2023-10-31T04:48:36;2.95;;;2.00;;
80565;SDS011;69915;54.862;10.730;2023-10-31T04:51:02;5.50;;;3.35;;
80565;SDS011;69915;54.862;10.730;2023-10-31T04:53:27;3.50;;;2.60;;
80565;SDS011;69915;54.862;10.730;2023-10-31T04:55:53;6.35;;;2.55;;
80565;SDS011;69915;54.862;10.730;2023-10-31T04:58:18;8.65;;;2.65;;
80565;SDS011;69915;54.862;10.730;2023-10-31T05:00:43;3.58;;;3.03;;
80565;SDS011;69915;54.862;10.730;2023-10-31T05:03:09;6.78;;;2.90;;
80565;SDS011;69915;54.862;10.730;2023-10-31T05:05:35;6.88;;;3.72;;
80565;SDS011;69915;54.862;10.730;2023-10-31T05:08:00;3.38;;;2.72;;
80565;SDS011;69915;54.862;10.730;2023-10-31T05:10:25;4.78;;;3.38;;
80565;SDS011;69915;54.862;10.730;2023-10-31T05:12:51;3.10;;;2.78;;
80565;SDS011;69915;54.862;10.730;2023-10-31T05:15:17;5.43;;;3.60;;
80565;SDS011;69915;54.862;10.730;2023-10-31T05:17:43;4.20;;;3.35;;
80565;SDS011;69915;54.862;10.730;2023-10-31T05:20:08;5.35;;;4.05;;
80565;SDS011;69915;54.862;10.730;2023-10-31T05:22:35;4.70;;;3.75;;
80565;SDS011;69915;54.862;10.730;2023-10-31T05:25:01;4.57;;;3.13;;
80565;SDS011;69915;54.862;10.730;2023-10-31T05:27:27;5.65;;;3.83;;
80565;SDS011;69915;54.862;10.730;2023-10-31T05:29:53;4.20;;;2.78;;
80565;SDS011;69915;54.862;10.730;2023-10-31T05:32:19;3.13;;;2.35;;
80565;SDS011;69915;54.862;10.730;2023-10-31T05:34:44;3.90;;;2.92;;
80565;SDS011;69915;54.862;10.730;2023-10-31T05:37:10;3.95;;;2.83;;
80565;SDS011;69915;54.862;10.730;2023-10-31T05:39:35;3.60;;;2.35;;
80565;SDS011;69915;54.862;10.730;2023-10-31T05:42:02;2.10;;;1.55;;
80565;SDS011;69915;54.862;10.730;2023-10-31T05:44:28;4.70;;;3.35;;
80565;SDS011;69915;54.862;10.730;2023-10-31T05:46:53;4.82;;;3.08;;
80565;SDS011;69915;54.862;10.730;2023-10-31T05:49:19;3.20;;;2.42;;
80565;SDS011;69915;54.862;10.730;2023-10-31T05:51:44;5.60;;;2.78;;
80565;SDS011;69915;54.862;10.730;2023-10-31T05:56:40;6.43;;;2.75;;
80565;SDS011;69915;54.862;10.730;2023-10-31T05:59:05;4.10;;;2.60;;
80565;SDS011;69915;54.862;10.730;2023-10-31T06:01:31;4.53;;;2.38;;
80565;SDS011;69915;54.862;10.730;2023-10-31T06:03:57;5.65;;;2.58;;
80565;SDS011;69915;54.862;10.730;2023-10-31T06:06:22;3.47;;;2.60;;
80565;SDS011;69915;54.862;10.730;2023-10-31T06:08:48;5.45;;;2.35;;
80565;SDS011;69915;54.862;10.730;2023-10-31T06:11:13;4.30;;;2.58;;
80565;SDS011;69915;54.862;10.730;2023-10-31T06:13:39;3.83;;;2.30;;
80565;SDS011;69915;54.862;10.730;2023-10-31T06:16:04;7.68;;;2.60;;
80565;SDS011;69915;54.862;10.730;2023-10-31T06:18:30;9.45;;;3.03;;
80565;SDS011;69915;54.862;10.730;2023-10-31T06:20:55;5.40;;;2.55;;
80565;SDS011;69915;54.862;10.730;2023-10-31T06:23:21;7.40;;;2.60;;
80565;SDS011;69915;54.862;10.730;2023-10-31T06:25:46;4.45;;;2.40;;
80565;SDS011;69915;54.862;10.730;2023-10-31T06:28:12;7.68;;;3.67;;
80565;SDS011;69915;54.862;10.730;2023-10-31T06:30:37;4.65;;;2.50;;
80565;SDS011;69915;54.862;10.730;2023-10-31T06:33:02;6.82;;;2.40;;
80565;SDS011;69915;54.862;10.730;2023-10-31T06:35:28;5.30;;;2.33;;
80565;SDS011;69915;54.862;10.730;2023-10-31T06:37:54;3.65;;;2.33;;
80565;SDS011;69915;54.862;10.730;2023-10-31T06:40:22;2.35;;;1.70;;
80565;SDS011;69915;54.862;10.730;2023-10-31T06:42:48;3.55;;;2.22;;
80565;SDS011;69915;54.862;10.730;2023-10-31T06:45:14;6.38;;;2.53;;
80565;SDS011;69915;54.862;10.730;2023-10-31T06:47:39;3.83;;;2.50;;
80565;SDS011;69915;54.862;10.730;2023-10-31T06:50:05;3.67;;;2.33;;
80565;SDS011;69915;54.862;10.730;2023-10-31T06:52:32;5.95;;;3.40;;
80565;SDS011;69915;54.862;10.730;2023-10-31T06:54:58;4.55;;;1.83;;
80565;SDS011;69915;54.862;10.730;2023-10-31T06:57:23;6.43;;;2.83;;
80565;SDS011;69915;54.862;10.730;2023-10-31T06:59:48;4.95;;;2.60;;
80565;SDS011;69915;54.862;10.730;2023-10-31T07:02:14;2.83;;;1.77;;
80565;SDS011;69915;54.862;10.730;2023-10-31T07:04:39;2.50;;;1.70;;
80565;SDS011;69915;54.862;10.730;2023-10-31T07:07:05;4.10;;;2.78;;
80565;SDS011;69915;54.862;10.730;2023-10-31T07:09:31;2.72;;;1.45;;
80565;SDS011;69915;54.862;10.730;2023-10-31T07:11:56;4.38;;;1.73;;
80565;SDS011;69915;54.862;10.730;2023-10-31T07:14:21;3.42;;;1.30;;
80565;SDS011;69915;54.862;10.730;2023-10-31T07:16:47;4.68;;;1.88;;
80565;SDS011;69915;54.862;10.730;2023-10-31T07:19:13;2.30;;;1.63;;
80565;SDS011;69915;54.862;10.730;2023-10-31T07:21:39;2.95;;;2.00;;
80565;SDS011;69915;54.862;10.730;2023-10-31T07:24:05;3.17;;;1.80;;
80565;SDS011;69915;54.862;10.730;2023-10-31T07:26:33;2.55;;;1.52;;
80565;SDS011;69915;54.862;10.730;2023-10-31T07:28:59;2.75;;;1.45;;
80565;SDS011;69915;54.862;10.730;2023-10-31T07:31:24;2.42;;;1.52;;
80565;SDS011;69915;54.862;10.730;2023-10-31T07:33:50;3.72;;;1.90;;
80565;SDS011;69915;54.862;10.730;2023-10-31T07:36:15;6.55;;;2.00;;
80565;SDS011;69915;54.862;10.730;2023-10-31T07:38:41;3.58;;;1.65;;
80565;SDS011;69915;54.862;10.730;2023-10-31T07:41:06;3.63;;;1.58;;
80565;SDS011;69915;54.862;10.730;2023-10-31T07:43:32;3.70;;;1.65;;
80565;SDS011;69915;54.862;10.730;2023-10-31T07:45:59;3.03;;;1.55;;
80565;SDS011;69915;54.862;10.730;2023-10-31T07:48:24;3.95;;;2.20;;
80565;SDS011;69915;54.862;10.730;2023-10-31T07:50:49;2.95;;;1.80;;
80565;SDS011;69915;54.862;10.730;2023-10-31T07:53:15;3.13;;;1.65;;
80565;SDS011;69915;54.862;10.730;2023-10-31T07:55:40;3.05;;;2.00;;
80565;SDS011;69915;54.862;10.730;2023-10-31T07:58:06;3.47;;;2.22;;
80565;SDS011;69915;54.862;10.730;2023-10-31T08:00:31;2.45;;;1.63;;
80565;SDS011;69915;54.862;10.730;2023-10-31T08:02:58;7.65;;;2.03;;
80565;SDS011;69915;54.862;10.730;2023-10-31T08:05:23;2.25;;;1.25;;
80565;SDS011;69915;54.862;10.730;2023-10-31T08:07:49;1.92;;;1.38;;
80565;SDS011;69915;54.862;10.730;2023-10-31T08:10:14;2.63;;;1.42;;
80565;SDS011;69915;54.862;10.730;2023-10-31T08:12:40;4.32;;;2.70;;
80565;SDS011;69915;54.862;10.730;2023-10-31T08:15:05;3.47;;;1.70;;
80565;SDS011;69915;54.862;10.730;2023-10-31T08:17:31;6.00;;;2.00;;
80565;SDS011;69915;54.862;10.730;2023-10-31T08:19:57;2.13;;;1.60;;
80565;SDS011;69915;54.862;10.730;2023-10-31T08:22:22;2.35;;;1.50;;
80565;SDS011;69915;54.862;10.730;2023-10-31T08:24:48;6.28;;;1.80;;
80565;SDS011;69915;54.862;10.730;2023-10-31T08:27:13;2.00;;;1.38;;
80565;SDS011;69915;54.862;10.730;2023-10-31T08:29:39;1.65;;;1.20;;
80565;SDS011;69915;54.862;10.730;2023-10-31T08:32:05;1.92;;;1.30;;
80565;SDS011;69915;54.862;10.730;2023-10-31T08:34:30;1.92;;;1.40;;
80565;SDS011;69915;54.862;10.730;2023-10-31T08:36:56;3.72;;;0.90;;
80565;SDS011;69915;54.862;10.730;2023-10-31T08:39:23;2.35;;;1.10;;
80565;SDS011;69915;54.862;10.730;2023-10-31T08:41:52;1.92;;;1.05;;
80565;SDS011;69915;54.862;10.730;2023-10-31T08:44:18;1.40;;;1.20;;
80565;SDS011;69915;54.862;10.730;2023-10-31T08:46:44;3.45;;;1.17;;
80565;SDS011;69915;54.862;10.730;2023-10-31T08:49:09;2.28;;;1.40;;
80565;SDS011;69915;54.862;10.730;2023-10-31T08:51:34;2.15;;;1.40;;
80565;SDS011;69915;54.862;10.730;2023-10-31T08:54:00;1.60;;;1.38;;
80565;SDS011;69915;54.862;10.730;2023-10-31T08:56:25;4.22;;;1.27;;
80565;SDS011;69915;54.862;10.730;2023-10-31T08:58:52;2.25;;;1.00;;
80565;SDS011;69915;54.862;10.730;2023-10-31T09:01:18;2.10;;;1.50;;
80565;SDS011;69915;54.862;10.730;2023-10-31T09:03:44;3.10;;;1.20;;
80565;SDS011;69915;54.862;10.730;2023-10-31T09:06:10;1.02;;;0.90;;
80565;SDS011;69915;54.862;10.730;2023-10-31T09:08:35;2.10;;;1.20;;
80565;SDS011;69915;54.862;10.730;2023-10-31T09:11:03;1.70;;;1.40;;
80565;SDS011;69915;54.862;10.730;2023-10-31T09:13:29;2.72;;;1.42;;
80565;SDS011;69915;54.862;10.730;2023-10-31T09:15:55;1.15;;;0.98;;
80565;SDS011;69915;54.862;10.730;2023-10-31T09:18:21;3.00;;;0.90;;
80565;SDS011;69915;54.862;10.730;2023-10-31T09:20:46;1.60;;;1.10;;
80565;SDS011;69915;54.862;10.730;2023-10-31T09:23:12;1.35;;;1.08;;
80565;SDS011;69915;54.862;10.730;2023-10-31T09:25:37;2.28;;;1.20;;
80565;SDS011;69915;54.862;10.730;2023-10-31T09:28:03;1.33;;;0.90;;
80565;SDS011;69915;54.862;10.730;2023-10-31T09:30:28;2.38;;;1.75;;
80565;SDS011;69915;54.862;10.730;2023-10-31T09:32:53;1.65;;;1.30;;
80565;SDS011;69915;54.862;10.730;2023-10-31T09:35:19;3.40;;;1.52;;
80565;SDS011;69915;54.862;10.730;2023-10-31T09:37:44;2.85;;;1.67;;
80565;SDS011;69915;54.862;10.730;2023-10-31T09:40:13;3.05;;;1.52;;
80565;SDS011;69915;54.862;10.730;2023-10-31T09:42:39;2.00;;;1.50;;
80565;SDS011;69915;54.862;10.730;2023-10-31T09:45:05;3.17;;;1.60;;
80565;SDS011;69915;54.862;10.730;2023-10-31T09:47:31;3.30;;;1.60;;
80565;SDS011;69915;54.862;10.730;2023-10-31T09:49:57;2.10;;;1.58;;
80565;SDS011;69915;54.862;10.730;2023-10-31T09:52:23;1.90;;;1.60;;
80565;SDS011;69915;54.862;10.730;2023-10-31T09:54:50;2.53;;;1.42;;
80565;SDS011;69915;54.862;10.730;2023-10-31T09:57:17;2.70;;;1.65;;
80565;SDS011;69915;54.862;10.730;2023-10-31T09:59:43;2.65;;;1.80;;
80565;SDS011;69915;54.862;10.730;2023-10-31T10:02:08;1.80;;;1.42;;
80565;SDS011;69915;54.862;10.730;2023-10-31T10:04:34;4.75;;;1.40;;
80565;SDS011;69915;54.862;10.730;2023-10-31T10:07:02;2.47;;;1.25;;
80565;SDS011;69915;54.862;10.730;2023-10-31T10:09:28;3.65;;;1.40;;
80565;SDS011;69915;54.862;10.730;2023-10-31T10:11:54;1.80;;;1.30;;
80565;SDS011;69915;54.862;10.730;2023-10-31T10:14:22;3.22;;;1.70;;
80565;SDS011;69915;54.862;10.730;2023-10-31T10:16:48;6.13;;;1.80;;
80565;SDS011;69915;54.862;10.730;2023-10-31T10:19:21;2.10;;;1.70;;
80565;SDS011;69915;54.862;10.730;2023-10-31T10:21:51;2.83;;;2.25;;
80565;SDS011;69915;54.862;10.730;2023-10-31T10:24:18;2.05;;;1.75;;
80565;SDS011;69915;54.862;10.730;2023-10-31T10:26:45;2.60;;;1.60;;
80565;SDS011;69915;54.862;10.730;2023-10-31T10:29:11;2.40;;;1.95;;
80565;SDS011;69915;54.862;10.730;2023-10-31T10:31:37;1.77;;;1.38;;
80565;SDS011;69915;54.862;10.730;2023-10-31T10:34:02;1.80;;;1.25;;
80565;SDS011;69915;54.862;10.730;2023-10-31T10:36:28;1.73;;;1.35;;
80565;SDS011;69915;54.862;10.730;2023-10-31T10:38:57;3.35;;;2.00;;
80565;SDS011;69915;54.862;10.730;2023-10-31T10:41:26;2.47;;;1.60;;
80565;SDS011;69915;54.862;10.730;2023-10-31T10:43:56;2.72;;;1.70;;
80565;SDS011;69915;54.862;10.730;2023-10-31T10:46:28;2.47;;;2.28;;
80565;SDS011;69915;54.862;10.730;2023-10-31T10:49:04;2.33;;;1.40;;
80565;SDS011;69915;54.862;10.730;2023-10-31T10:54:18;2.25;;;1.70;;
80565;SDS011;69915;54.862;10.730;2023-10-31T10:57:09;2.08;;;1.30;;
80565;SDS011;69915;54.862;10.730;2023-10-31T10:59:45;3.33;;;1.70;;
80565;SDS011;69915;54.862;10.730;2023-10-31T11:02:18;1.80;;;1.50;;
80565;SDS011;69915;54.862;10.730;2023-10-31T11:04:43;3.63;;;1.73;;
80565;SDS011;69915;54.862;10.730;2023-10-31T11:07:09;1.80;;;1.40;;
80565;SDS011;69915;54.862;10.730;2023-10-31T11:09:35;2.95;;;1.10;;
80565;SDS011;69915;54.862;10.730;2023-10-31T11:12:03;1.55;;;1.20;;
80565;SDS011;69915;54.862;10.730;2023-10-31T11:14:30;2.03;;;1.50;;
80565;SDS011;69915;54.862;10.730;2023-10-31T11:16:58;1.30;;;1.17;;
80565;SDS011;69915;54.862;10.730;2023-10-31T11:19:28;4.35;;;2.67;;
80565;SDS011;69915;54.862;10.730;2023-10-31T11:21:57;4.93;;;1.80;;
80565;SDS011;69915;54.862;10.730;2023-10-31T11:24:37;1.58;;;1.20;;
80565;SDS011;69915;54.862;10.730;2023-10-31T11:27:04;1.90;;;1.30;;
80565;SDS011;69915;54.862;10.730;2023-10-31T11:29:31;2.15;;;1.38;;
80565;SDS011;69915;54.862;10.730;2023-10-31T11:31:57;1.50;;;1.30;;
80565;SDS011;69915;54.862;10.730;2023-10-31T11:34:27;1.70;;;1.35;;
80565;SDS011;69915;54.862;10.730;2023-10-31T11:36:59;1.42;;;1.15;;
80565;SDS011;69915;54.862;10.730;2023-10-31T11:42:51;2.28;;;1.38;;
80565;SDS011;69915;54.862;10.730;2023-10-31T11:45:26;3.10;;;1.40;;
80565;SDS011;69915;54.862;10.730;2023-10-31T11:48:05;3.38;;;1.00;;
80565;SDS011;69915;54.862;10.730;2023-10-31T11:50:32;2.03;;;1.67;;
80565;SDS011;69915;54.862;10.730;2023-10-31T11:53:19;1.77;;;1.20;;
80565;SDS011;69915;54.862;10.730;2023-10-31T12:00:41;1.30;;;1.10;;
80565;SDS011;69915;54.862;10.730;2023-10-31T12:03:07;2.25;;;1.38;;
80565;SDS011;69915;54.862;10.730;2023-10-31T12:05:32;2.65;;;1.95;;
80565;SDS011;69915;54.862;10.730;2023-10-31T12:07:57;1.75;;;1.08;;
80565;SDS011;69915;54.862;10.730;2023-10-31T12:10:24;2.55;;;1.52;;
80565;SDS011;69915;54.862;10.730;2023-10-31T12:12:52;2.55;;;1.30;;
80565;SDS011;69915;54.862;10.730;2023-10-31T12:15:18;2.20;;;1.33;;
80565;SDS011;69915;54.862;10.730;2023-10-31T12:17:43;2.13;;;1.27;;
80565;SDS011;69915;54.862;10.730;2023-10-31T12:20:09;1.48;;;1.00;;
80565;SDS011;69915;54.862;10.730;2023-10-31T12:22:35;1.40;;;1.20;;
80565;SDS011;69915;54.862;10.730;2023-10-31T12:27:41;1.85;;;1.25;;
80565;SDS011;69915;54.862;10.730;2023-10-31T12:30:11;1.67;;;1.00;;
80565;SDS011;69915;54.862;10.730;2023-10-31T12:32:44;1.88;;;1.23;;
80565;SDS011;69915;54.862;10.730;2023-10-31T12:35:11;7.32;;;1.55;;
80565;SDS011;69915;54.862;10.730;2023-10-31T12:37:45;1.38;;;1.10;;
80565;SDS011;69915;54.862;10.730;2023-10-31T12:40:19;1.60;;;1.10;;
80565;SDS011;69915;54.862;10.730;2023-10-31T12:42:46;1.50;;;1.17;;
80565;SDS011;69915;54.862;10.730;2023-10-31T12:45:14;2.72;;;1.63;;
80565;SDS011;69915;54.862;10.730;2023-10-31T12:47:40;2.70;;;1.10;;
80565;SDS011;69915;54.862;10.730;2023-10-31T12:52:49;1.65;;;1.17;;
80565;SDS011;69915;54.862;10.730;2023-10-31T12:55:16;1.92;;;1.08;;
80565;SDS011;69915;54.862;10.730;2023-10-31T12:57:46;1.48;;;1.10;;
80565;SDS011;69915;54.862;10.730;2023-10-31T13:00:13;4.95;;;1.10;;
80565;SDS011;69915;54.862;10.730;2023-10-31T13:02:39;3.90;;;1.25;;
80565;SDS011;69915;54.862;10.730;2023-10-31T13:07:38;1.45;;;1.05;;
80565;SDS011;69915;54.862;10.730;2023-10-31T13:10:06;1.48;;;1.20;;
80565;SDS011;69915;54.862;10.730;2023-10-31T13:12:34;1.63;;;1.02;;
80565;SDS011;69915;54.862;10.730;2023-10-31T13:15:00;1.42;;;1.00;;
80565;SDS011;69915;54.862;10.730;2023-10-31T13:17:26;2.45;;;0.98;;
80565;SDS011;69915;54.862;10.730;2023-10-31T13:19:52;1.35;;;0.98;;
80565;SDS011;69915;54.862;10.730;2023-10-31T13:22:18;1.40;;;1.00;;
80565;SDS011;69915;54.862;10.730;2023-10-31T13:24:43;1.40;;;0.98;;
80565;SDS011;69915;54.862;10.730;2023-10-31T13:27:09;2.10;;;1.10;;
80565;SDS011;69915;54.862;10.730;2023-10-31T13:29:39;1.13;;;0.85;;
80565;SDS011;69915;54.862;10.730;2023-10-31T13:32:05;1.45;;;0.80;;
80565;SDS011;69915;54.862;10.730;2023-10-31T13:34:30;1.35;;;0.80;;
80565;SDS011;69915;54.862;10.730;2023-10-31T13:36:57;1.75;;;1.10;;
80565;SDS011;69915;54.862;10.730;2023-10-31T13:39:23;1.40;;;0.93;;
80565;SDS011;69915;54.862;10.730;2023-10-31T13:41:48;1.23;;;1.10;;
80565;SDS011;69915;54.862;10.730;2023-10-31T13:44:14;1.20;;;1.00;;
80565;SDS011;69915;54.862;10.730;2023-10-31T13:46:39;1.33;;;1.00;;
80565;SDS011;69915;54.862;10.730;2023-10-31T13:49:05;1.20;;;0.90;;
80565;SDS011;69915;54.862;10.730;2023-10-31T13:51:32;0.80;;;0.80;;
80565;SDS011;69915;54.862;10.730;2023-10-31T13:53:57;2.47;;;1.15;;
80565;SDS011;69915;54.862;10.730;2023-10-31T13:56:23;1.38;;;1.08;;
80565;SDS011;69915;54.862;10.730;2023-10-31T13:58:48;1.35;;;1.10;;
80565;SDS011;69915;54.862;10.730;2023-10-31T14:01:14;1.27;;;0.82;;
80565;SDS011;69915;54.862;10.730;2023-10-31T14:03:39;1.17;;;0.70;;
80565;SDS011;69915;54.862;10.730;2023-10-31T14:06:05;1.13;;;0.70;;
80565;SDS011;69915;54.862;10.730;2023-10-31T14:08:30;4.40;;;0.75;;
80565;SDS011;69915;54.862;10.730;2023-10-31T14:10:56;6.70;;;1.30;;
80565;SDS011;69915;54.862;10.730;2023-10-31T14:13:22;1.13;;;0.82;;
80565;SDS011;69915;54.862;10.730;2023-10-31T14:15:47;2.38;;;0.65;;
80565;SDS011;69915;54.862;10.730;2023-10-31T14:18:12;1.38;;;0.65;;
80565;SDS011;69915;54.862;10.730;2023-10-31T14:20:40;2.50;;;1.13;;
80565;SDS011;69915;54.862;10.730;2023-10-31T14:23:06;1.20;;;0.73;;
80565;SDS011;69915;54.862;10.730;2023-10-31T14:25:31;0.98;;;0.52;;
80565;SDS011;69915;54.862;10.730;2023-10-31T14:27:57;1.05;;;0.70;;
80565;SDS011;69915;54.862;10.730;2023-10-31T14:30:22;0.90;;;0.65;;
80565;SDS011;69915;54.862;10.730;2023-10-31T14:32:48;0.98;;;0.60;;
80565;SDS011;69915;54.862;10.730;2023-10-31T14:35:13;0.73;;;0.60;;
80565;SDS011;69915;54.862;10.730;2023-10-31T14:37:39;2.50;;;0.77;;
80565;SDS011;69915;54.862;10.730;2023-10-31T14:40:05;1.33;;;0.85;;
80565;SDS011;69915;54.862;10.730;2023-10-31T14:42:31;0.80;;;0.50;;
80565;SDS011;69915;54.862;10.730;2023-10-31T14:44:57;0.90;;;0.50;;
80565;SDS011;69915;54.862;10.730;2023-10-31T14:47:22;4.28;;;1.23;;
80565;SDS011;69915;54.862;10.730;2023-10-31T14:49:48;1.10;;;0.60;;
80565;SDS011;69915;54.862;10.730;2023-10-31T14:52:13;1.20;;;0.57;;